Time;durP1;ratioP1;P1;durP2;ratioP2;P2;SDS_P1;SDS_P2;PMS_P1;PMS_P2;Temp;Humidity;BMP_temperature;BMP_pressure;BME280_temperature;BME280_humidity;BME280_pressure;Samples;Min_cycle;Max_cycle;Signal;HPM_P1;HPM_P2
2023/03/10 00:00:23;;;;;;;14.95;2.88;;;10.50;99.90;;;;;;4941827;29;20032;-81
2023/03/10 00:02:49;;;;;;;11.90;2.97;;;10.40;99.90;;;;;;4925293;29;20020;-77
2023/03/10 00:05:19;;;;;;;11.85;2.53;;;10.30;99.90;;;;;;4923753;29;20040;-80
2023/03/10 00:07:45;;;;;;;15.07;2.78;;;10.30;99.90;;;;;;4918962;29;20024;-81
2023/03/10 00:23:05;;;;;;;15.75;2.80;;;10.40;99.90;;;;;;5214158;23;20054;-86
2023/03/10 00:32:48;;;;;;;13.00;3.10;;;10.60;99.90;;;;;;4958071;28;20031;-82
2023/03/10 00:35:32;;;;;;;8.23;2.33;;;10.70;99.90;;;;;;4976832;28;20418;-81
2023/03/10 00:37:58;;;;;;;8.55;1.70;;;10.60;99.90;;;;;;4978222;28;20074;-77
2023/03/10 00:40:24;;;;;;;13.18;2.03;;;10.70;99.90;;;;;;4960714;28;20384;-79
2023/03/10 00:42:50;;;;;;;7.65;2.13;;;10.70;99.90;;;;;;4966042;28;20062;-78
2023/03/10 00:45:15;;;;;;;11.45;2.35;;;10.60;99.90;;;;;;4956391;28;20073;-77
2023/03/10 00:47:41;;;;;;;9.73;2.10;;;10.60;99.90;;;;;;4970047;28;20010;-77
2023/03/10 00:50:08;;;;;;;8.35;1.65;;;10.70;99.90;;;;;;4968866;28;20033;-77
2023/03/10 00:52:33;;;;;;;9.73;1.60;;;10.70;99.90;;;;;;4969088;28;20026;-80
2023/03/10 00:54:59;;;;;;;13.95;2.33;;;10.60;99.90;;;;;;4957519;28;20034;-78
2023/03/10 00:57:25;;;;;;;9.77;2.08;;;10.60;99.90;;;;;;4948174;29;20031;-79
2023/03/10 00:59:51;;;;;;;9.25;2.13;;;10.60;99.90;;;;;;4962815;28;20037;-79
2023/03/10 01:02:18;;;;;;;9.07;1.73;;;10.60;99.90;;;;;;4942848;28;20035;-79
2023/03/10 01:04:44;;;;;;;8.80;1.85;;;10.60;99.90;;;;;;4969117;28;20026;-80
2023/03/10 01:07:10;;;;;;;12.73;2.50;;;10.60;99.90;;;;;;4955142;29;20114;-80
2023/03/10 01:09:35;;;;;;;7.07;1.40;;;10.50;99.90;;;;;;4972980;28;20713;-80
2023/03/10 01:12:01;;;;;;;11.05;2.05;;;10.50;99.90;;;;;;4979145;28;20474;-80
2023/03/10 01:14:27;;;;;;;6.80;1.70;;;10.50;99.90;;;;;;4979061;28;20019;-80
2023/03/10 01:16:52;;;;;;;7.22;1.40;;;10.50;99.90;;;;;;4971640;28;20031;-80
2023/03/10 01:19:18;;;;;;;8.75;1.98;;;10.50;99.90;;;;;;4943303;28;20027;-78
2023/03/10 01:21:44;;;;;;;6.35;1.45;;;10.50;99.90;;;;;;4978546;28;20093;-79
2023/03/10 01:24:14;;;;;;;8.68;1.25;;;10.50;99.90;;;;;;4977804;28;20026;-80
2023/03/10 01:26:39;;;;;;;6.88;1.40;;;10.50;99.90;;;;;;4959125;28;20029;-80
2023/03/10 01:29:05;;;;;;;6.32;1.40;;;10.50;99.90;;;;;;4957925;28;20106;-77
2023/03/10 01:31:31;;;;;;;7.70;1.60;;;10.40;99.90;;;;;;4959855;28;20028;-78
2023/03/10 01:33:57;;;;;;;7.65;1.27;;;10.40;99.90;;;;;;4942191;28;20027;-79
2023/03/10 01:36:25;;;;;;;7.35;1.50;;;10.40;99.90;;;;;;4942530;29;20039;-78
2023/03/10 01:38:51;;;;;;;5.60;1.40;;;10.40;99.90;;;;;;4942239;28;20114;-78
2023/03/10 01:41:18;;;;;;;5.60;1.13;;;10.50;99.90;;;;;;4963130;28;20019;-80
2023/03/10 01:43:47;;;;;;;8.55;1.40;;;10.50;99.90;;;;;;4947843;28;20020;-79
2023/03/10 01:46:51;;;;;;;3.55;1.00;;;10.50;99.90;;;;;;4959562;28;20027;-79
2023/03/10 01:49:42;;;;;;;4.15;1.02;;;10.50;99.90;;;;;;4975002;28;20089;-78
2023/03/10 01:52:18;;;;;;;4.25;0.98;;;10.50;99.90;;;;;;4962445;28;20061;-79
2023/03/10 01:54:53;;;;;;;4.05;1.25;;;10.50;99.90;;;;;;4941847;29;20031;-78
2023/03/10 01:57:27;;;;;;;5.55;1.23;;;10.50;99.90;;;;;;4975158;28;20399;-79
2023/03/10 01:59:54;;;;;;;3.78;0.82;;;10.40;99.90;;;;;;4978564;28;20387;-82
2023/03/10 02:02:20;;;;;;;2.85;0.70;;;10.40;99.90;;;;;;4977922;28;20453;-80
2023/03/10 02:04:47;;;;;;;4.50;0.98;;;10.40;99.90;;;;;;4970658;28;20102;-78
2023/03/10 02:07:16;;;;;;;5.85;0.82;;;10.40;99.90;;;;;;4951471;29;20031;-78
2023/03/10 02:09:45;;;;;;;4.78;0.85;;;10.40;99.90;;;;;;4972791;28;20090;-77
2023/03/10 02:12:12;;;;;;;4.72;0.90;;;10.40;99.90;;;;;;4948369;29;20047;-76
2023/03/10 02:14:39;;;;;;;1.75;0.43;;;10.40;99.90;;;;;;4973032;28;20037;-77
2023/03/10 02:17:08;;;;;;;5.28;0.77;;;10.40;99.90;;;;;;4959095;28;20037;-75
2023/03/10 02:19:52;;;;;;;4.93;1.15;;;10.30;99.90;;;;;;4978099;28;20030;-77
2023/03/10 02:22:17;;;;;;;6.85;1.02;;;10.30;99.90;;;;;;4948366;28;20047;-78
2023/03/10 02:25:10;;;;;;;3.33;0.80;;;10.30;99.90;;;;;;4972035;28;20033;-77
2023/03/10 02:27:38;;;;;;;3.38;0.52;;;10.30;99.90;;;;;;4957565;28;20030;-79
2023/03/10 02:30:12;;;;;;;1.83;0.60;;;10.30;99.90;;;;;;4971261;28;20110;-78
2023/03/10 02:32:46;;;;;;;2.25;0.60;;;10.30;99.90;;;;;;4962885;28;20059;-78
2023/03/10 02:35:12;;;;;;;3.35;0.60;;;10.30;99.90;;;;;;4963038;28;20078;-78
2023/03/10 02:37:38;;;;;;;4.47;0.90;;;10.30;99.90;;;;;;4962726;28;20031;-76
2023/03/10 02:40:32;;;;;;;3.60;0.60;;;10.30;99.90;;;;;;4962425;28;20019;-76
2023/03/10 02:43:16;;;;;;;4.28;0.80;;;10.30;99.90;;;;;;4962671;28;20034;-74
2023/03/10 02:45:44;;;;;;;4.50;0.82;;;10.20;99.90;;;;;;4966596;28;20023;-74
2023/03/10 02:48:13;;;;;;;5.55;0.68;;;10.20;99.90;;;;;;4978882;28;20058;-73
2023/03/10 02:50:41;;;;;;;1.88;0.47;;;10.20;99.90;;;;;;4964240;28;20031;-75
2023/03/10 02:53:14;;;;;;;2.75;0.55;;;10.20;99.90;;;;;;4980920;28;20398;-74
2023/03/10 02:55:40;;;;;;;;;;;10.20;99.90;;;;;;4945216;29;20028;-75
2023/03/10 02:58:06;;;;;;;2.55;0.55;;;10.10;99.90;;;;;;4953518;28;19914;-75
2023/03/10 03:00:35;;;;;;;3.38;0.75;;;10.10;99.90;;;;;;4964326;28;20034;-76
2023/03/10 03:03:00;;;;;;;3.50;0.50;;;10.20;99.90;;;;;;4981666;28;20138;-75
2023/03/10 03:05:26;;;;;;;3.22;0.60;;;10.10;99.90;;;;;;4981539;28;20082;-75
2023/03/10 03:07:52;;;;;;;6.25;0.70;;;10.10;99.90;;;;;;4964313;28;20368;-74
2023/03/10 03:10:18;;;;;;;4.00;0.60;;;10.10;99.90;;;;;;4972903;28;20090;-73
2023/03/10 03:12:44;;;;;;;2.75;0.50;;;10.10;99.90;;;;;;4945023;29;20023;-74
2023/03/10 03:15:10;;;;;;;2.38;0.50;;;10.10;99.90;;;;;;4962143;28;20031;-75
2023/03/10 03:17:35;;;;;;;4.10;0.50;;;10.10;99.90;;;;;;4962201;28;20026;-74
2023/03/10 03:20:10;;;;;;;1.25;0.43;;;10.10;99.90;;;;;;4944859;29;20231;-73
2023/03/10 03:22:36;;;;;;;2.38;0.30;;;10.10;99.90;;;;;;4961731;29;20044;-73
2023/03/10 03:25:02;;;;;;;2.67;0.85;;;10.00;99.90;;;;;;4961741;29;20039;-74
2023/03/10 03:27:29;;;;;;;1.73;0.55;;;;;;;;;;4944438;29;20020;-74
2023/03/10 03:29:55;;;;;;;1.52;0.40;;;10.00;99.90;;;;;;4961812;29;20035;-75
2023/03/10 03:32:20;;;;;;;1.83;0.47;;;10.00;99.90;;;;;;4961806;29;20027;-75
2023/03/10 03:34:46;;;;;;;1.45;0.30;;;10.00;99.90;;;;;;4961306;29;20530;-76
2023/03/10 03:37:12;;;;;;;0.73;0.30;;;10.00;99.90;;;;;;4961546;29;20031;-76
2023/03/10 03:39:38;;;;;;;2.53;0.50;;;10.00;99.90;;;;;;4960184;28;20036;-75
2023/03/10 03:42:03;;;;;;;0.75;0.30;;;10.00;99.90;;;;;;4961499;29;20078;-74
2023/03/10 03:44:29;;;;;;;1.13;0.40;;;;;;;;;;4961342;29;20103;-74
2023/03/10 03:46:55;;;;;;;1.40;0.40;;;10.00;99.90;;;;;;4961484;29;20102;-74
2023/03/10 03:49:20;;;;;;;1.52;0.40;;;10.10;99.90;;;;;;4957919;29;20110;-75
2023/03/10 03:51:46;;;;;;;0.85;0.30;;;10.10;99.90;;;;;;4961313;29;20035;-75
2023/03/10 03:54:12;;;;;;;0.88;0.40;;;10.10;99.90;;;;;;4961289;29;20036;-74
2023/03/10 03:56:38;;;;;;;1.17;0.30;;;10.10;99.90;;;;;;4960635;29;20527;-75
2023/03/10 03:59:04;;;;;;;0.77;0.40;;;10.10;99.90;;;;;;4961606;29;20031;-76
2023/03/10 04:01:29;;;;;;;2.13;0.57;;;10.10;99.90;;;;;;4961160;29;20034;-75
2023/03/10 04:03:55;;;;;;;3.35;0.25;;;10.10;99.90;;;;;;4943540;29;20032;-76
2023/03/10 04:06:21;;;;;;;1.88;0.50;;;10.10;99.90;;;;;;4961007;29;20027;-75
2023/03/10 04:08:49;;;;;;;0.93;0.35;;;10.00;99.90;;;;;;4961083;29;20023;-75
2023/03/10 04:11:15;;;;;;;2.80;0.65;;;10.00;99.90;;;;;;4960696;29;20048;-75
2023/03/10 04:13:42;;;;;;;2.55;0.60;;;10.10;99.90;;;;;;4961312;29;20035;-75
2023/03/10 04:16:08;;;;;;;1.05;0.30;;;10.00;99.90;;;;;;4943966;29;20039;-74
2023/03/10 04:18:33;;;;;;;2.25;0.57;;;10.30;99.90;;;;;;4943550;29;20422;-73
2023/03/10 04:20:59;;;;;;;3.15;0.73;;;;;;;;;;4965032;28;20043;-73
2023/03/10 04:23:25;;;;;;;3.70;0.60;;;10.00;99.90;;;;;;4980165;28;20443;-74
2023/03/10 04:25:51;;;;;;;3.30;0.85;;;9.90;99.90;;;;;;4979334;28;20097;-74
2023/03/10 04:28:16;;;;;;;1.52;0.40;;;9.90;99.90;;;;;;4978878;28;20037;-74
2023/03/10 04:30:44;;;;;;;3.00;0.57;;;9.90;99.90;;;;;;4949863;28;20034;-73
2023/03/10 04:33:10;;;;;;;3.33;0.50;;;9.70;99.90;;;;;;4966006;28;20035;-73
2023/03/10 04:35:41;;;;;;;1.67;0.68;;;9.90;99.90;;;;;;4960836;28;20031;-74
2023/03/10 04:38:07;;;;;;;3.38;0.50;;;9.90;99.90;;;;;;4943683;29;20151;-75
2023/03/10 04:40:32;;;;;;;0.95;0.25;;;9.90;99.90;;;;;;4960527;28;20106;-73
2023/03/10 04:42:58;;;;;;;0.95;0.30;;;9.90;99.90;;;;;;4960786;28;20027;-73
2023/03/10 04:45:24;;;;;;;1.88;0.40;;;9.90;99.90;;;;;;4972244;28;20018;-73
2023/03/10 04:47:49;;;;;;;1.23;0.40;;;9.90;99.90;;;;;;4951091;28;20093;-74
2023/03/10 04:50:16;;;;;;;2.20;0.55;;;9.90;99.90;;;;;;4978988;28;20031;-74
2023/03/10 04:52:43;;;;;;;2.08;0.50;;;9.90;99.90;;;;;;4943414;29;20122;-74
2023/03/10 04:55:10;;;;;;;3.00;0.68;;;9.90;99.90;;;;;;4960245;28;20019;-73
2023/03/10 04:57:36;;;;;;;2.40;0.55;;;9.90;99.90;;;;;;4960208;28;20063;-74
2023/03/10 05:00:04;;;;;;;3.92;0.93;;;9.90;99.90;;;;;;4969715;28;20037;-75
2023/03/10 05:02:31;;;;;;;2.90;0.90;;;9.80;99.90;;;;;;4971702;28;20403;-74
2023/03/10 05:04:57;;;;;;;2.65;0.70;;;9.80;99.90;;;;;;4960318;28;20027;-75
2023/03/10 05:07:22;;;;;;;2.78;0.88;;;9.90;99.90;;;;;;4960520;28;20027;-73
2023/03/10 05:09:48;;;;;;;2.92;0.75;;;9.80;99.90;;;;;;4942290;28;20106;-76
2023/03/10 05:12:14;;;;;;;5.90;0.60;;;9.80;99.90;;;;;;4960223;28;20046;-76
2023/03/10 05:14:39;;;;;;;2.45;0.68;;;9.80;99.90;;;;;;4942775;28;20019;-75
2023/03/10 05:17:05;;;;;;;2.53;0.80;;;9.70;99.90;;;;;;4959901;28;20031;-76
2023/03/10 05:19:33;;;;;;;5.13;0.85;;;9.70;99.90;;;;;;4960205;28;20023;-78
2023/03/10 05:21:59;;;;;;;2.65;0.63;;;9.70;99.90;;;;;;4955524;28;20074;-76
2023/03/10 05:24:25;;;;;;;4.28;0.90;;;;;;;;;;4978831;28;20038;-76
2023/03/10 05:26:51;;;;;;;3.72;0.70;;;9.50;99.90;;;;;;4962063;28;20033;-75
2023/03/10 05:29:19;;;;;;;3.70;0.63;;;9.60;99.90;;;;;;4979002;28;20022;-76
2023/03/10 05:31:44;;;;;;;3.72;0.63;;;9.60;99.90;;;;;;4962014;28;20073;-76
2023/03/10 05:34:10;;;;;;;3.33;0.77;;;9.60;99.90;;;;;;4978887;28;20387;-76
2023/03/10 05:36:35;;;;;;;4.03;0.60;;;9.60;99.90;;;;;;4978973;28;20114;-76
2023/03/10 05:39:01;;;;;;;3.53;0.95;;;9.50;99.90;;;;;;4978666;28;20031;-75
2023/03/10 05:41:27;;;;;;;5.63;1.00;;;9.60;99.90;;;;;;4961933;28;20058;-76
2023/03/10 05:43:53;;;;;;;3.17;0.95;;;;;;;;;;4978822;28;20023;-74
2023/03/10 05:46:18;;;;;;;7.55;0.90;;;9.50;99.90;;;;;;4979159;28;20376;-76
2023/03/10 05:48:44;;;;;;;5.20;1.15;;;9.50;99.90;;;;;;4970343;28;20042;-77
2023/03/10 05:51:11;;;;;;;2.55;0.95;;;;;;;;;;4979011;28;20035;-76
2023/03/10 05:53:37;;;;;;;5.55;0.90;;;9.40;99.90;;;;;;4978613;28;20026;-76
2023/03/10 05:56:09;;;;;;;4.60;1.05;;;9.40;99.90;;;;;;4978528;28;20475;-76
2023/03/10 05:58:35;;;;;;;4.40;1.05;;;;;;;;;;4978494;28;20023;-75
2023/03/10 06:01:01;;;;;;;7.32;1.33;;;;;;;;;;4961102;28;20031;-76
2023/03/10 06:03:28;;;;;;;6.28;1.40;;;9.30;99.90;;;;;;4978014;28;20503;-79
2023/03/10 06:05:55;;;;;;;10.50;1.58;;;;;;;;;;4961238;28;20045;-74
2023/03/10 06:08:22;;;;;;;4.10;1.13;;;;;;;;;;4978265;28;20019;-74
2023/03/10 06:10:48;;;;;;;5.40;1.85;;;9.30;99.90;;;;;;4978281;28;20372;-77
2023/03/10 06:13:14;;;;;;;4.32;0.88;;;9.30;99.90;;;;;;4948673;28;20027;-77
2023/03/10 06:15:39;;;;;;;3.45;1.20;;;9.20;99.90;;;;;;4974036;28;20038;-77
2023/03/10 06:18:05;;;;;;;7.25;1.60;;;;;;;;;;4956187;28;20034;-77
2023/03/10 06:20:32;;;;;;;5.28;1.40;;;;;;;;;;4959166;28;20041;-78
2023/03/10 06:22:58;;;;;;;3.70;1.25;;;9.20;99.90;;;;;;4960402;28;20026;-80
2023/03/10 06:25:23;;;;;;;8.50;1.33;;;9.10;99.90;;;;;;4958861;28;20026;-81
2023/03/10 06:27:49;;;;;;;5.35;1.00;;;;;;;;;;4966638;28;20019;-81
2023/03/10 06:30:16;;;;;;;4.75;1.20;;;;;;;;;;4959010;28;20041;-83
2023/03/10 06:32:42;;;;;;;7.15;1.55;;;;;;;;;;4945073;28;20494;-81
2023/03/10 06:35:11;;;;;;;5.05;1.20;;;9.10;99.90;;;;;;4954775;28;20041;-80
2023/03/10 06:37:37;;;;;;;4.68;1.40;;;;;;;;;;4942772;29;20028;-79
2023/03/10 06:40:06;;;;;;;8.13;1.42;;;9.10;99.90;;;;;;4967633;28;20046;-80
2023/03/10 06:42:32;;;;;;;8.27;1.60;;;;;;;;;;4933007;29;20027;-80
2023/03/10 06:44:58;;;;;;;5.68;1.40;;;9.00;99.90;;;;;;4941392;29;20095;-76
2023/03/10 06:47:24;;;;;;;9.55;1.70;;;9.00;99.90;;;;;;4955286;29;20457;-79
2023/03/10 06:49:50;;;;;;;5.43;1.20;;;;;;;;;;4956563;29;20504;-79
2023/03/10 06:52:16;;;;;;;7.20;1.48;;;;;;;;;;4955242;29;20031;-76
2023/03/10 06:54:42;;;;;;;4.30;1.48;;;;;;;;;;4958367;29;20031;-75
2023/03/10 06:57:08;;;;;;;4.60;1.20;;;;;;;;;;4958659;29;20391;-77
2023/03/10 06:59:34;;;;;;;7.88;1.02;;;;;;;;;;4954555;29;20024;-76
2023/03/10 07:01:59;;;;;;;4.97;1.10;;;9.00;99.90;;;;;;4922481;29;20035;-77
2023/03/10 07:04:25;;;;;;;8.85;1.33;;;;;;;;;;4950482;29;20027;-74
2023/03/10 07:06:51;;;;;;;3.97;1.25;;;9.10;99.90;;;;;;4958730;29;20027;-78
2023/03/10 07:09:17;;;;;;;7.35;1.40;;;;;;;;;;4941015;29;20019;-76
2023/03/10 07:11:43;;;;;;;8.98;1.30;;;9.00;99.90;;;;;;4952969;29;20034;-76
2023/03/10 07:14:09;;;;;;;6.53;1.30;;;;;;;;;;4952558;28;20027;-76
2023/03/10 07:16:37;;;;;;;7.13;1.42;;;7.90;99.90;;;;;;4952024;29;20020;-75
2023/03/10 07:19:02;;;;;;;9.05;1.38;;;8.90;99.90;;;;;;4956700;29;20059;-76
2023/03/10 07:21:28;;;;;;;10.73;1.83;;;;;;;;;;4961503;28;20055;-77
2023/03/10 07:23:57;;;;;;;5.45;1.42;;;;;;;;;;4949803;29;20028;-77
2023/03/10 07:26:22;;;;;;;6.40;1.63;;;9.00;99.90;;;;;;4925559;29;20137;-79
2023/03/10 07:28:48;;;;;;;5.05;1.20;;;9.00;99.90;;;;;;4942555;29;20049;-79
2023/03/10 07:31:15;;;;;;;6.93;1.05;;;9.00;99.90;;;;;;4934218;29;20469;-84
2023/03/10 07:33:40;;;;;;;6.40;1.92;;;9.00;99.90;;;;;;4949257;29;20030;-79
2023/03/10 07:36:17;;;;;;;6.70;1.50;;;;;;;;;;4950027;29;20408;-76
2023/03/10 07:38:43;;;;;;;4.88;1.13;;;9.00;99.90;;;;;;4924953;29;20040;-77
2023/03/10 07:41:10;;;;;;;5.55;1.60;;;;;;;;;;4953651;29;20039;-76
2023/03/10 07:43:36;;;;;;;9.15;1.85;;;;;;;;;;4927465;29;20034;-75
2023/03/10 07:46:11;;;;;;;6.43;1.27;;;9.10;99.90;;;;;;4953436;29;20031;-76
2023/03/10 07:48:37;;;;;;;5.13;1.17;;;;;;;;;;4949049;29;20368;-78
2023/03/10 07:51:03;;;;;;;7.85;1.60;;;;;;;;;;4950227;29;20503;-76
2023/03/10 07:53:29;;;;;;;6.40;1.30;;;9.10;99.90;;;;;;4948011;29;20019;-77
2023/03/10 07:55:55;;;;;;;5.20;1.38;;;9.10;99.90;;;;;;4952268;29;20051;-76
2023/03/10 07:58:21;;;;;;;4.10;1.15;;;9.10;99.90;;;;;;4957761;29;20373;-74
2023/03/10 08:00:53;;;;;;;7.78;1.63;;;;;;;;;;4949127;29;20039;-76
2023/03/10 08:03:20;;;;;;;7.95;1.30;;;;;;;;;;4934282;29;20504;-76
2023/03/10 08:05:46;;;;;;;6.45;1.25;;;9.10;99.90;;;;;;4953053;29;20377;-77
2023/03/10 08:08:12;;;;;;;6.68;0.93;;;;;;;;;;4929497;29;20441;-75
2023/03/10 08:10:37;;;;;;;4.15;1.30;;;9.10;99.90;;;;;;4933847;29;20057;-75
2023/03/10 08:13:04;;;;;;;4.07;1.05;;;;;;;;;;4948815;29;20511;-75
2023/03/10 08:15:29;;;;;;;6.53;1.20;;;9.10;99.90;;;;;;4925021;29;20036;-76
2023/03/10 08:17:55;;;;;;;7.07;1.08;;;;;;;;;;4931462;29;20050;-76
2023/03/10 08:20:21;;;;;;;5.03;1.15;;;;;;;;;;4941726;29;20094;-76
2023/03/10 08:22:47;;;;;;;4.13;1.48;;;;;;;;;;4941416;29;20134;-77
2023/03/10 08:25:13;;;;;;;5.22;1.05;;;9.20;99.90;;;;;;4941434;29;20067;-77
2023/03/10 08:27:40;;;;;;;4.45;1.10;;;;;;;;;;4927145;29;20026;-76
2023/03/10 08:30:06;;;;;;;7.05;1.58;;;;;;;;;;4924869;29;20032;-75
2023/03/10 08:32:32;;;;;;;9.07;1.50;;;;;;;;;;4941286;29;20046;-76
2023/03/10 08:34:58;;;;;;;7.05;1.17;;;;;;;;;;4923761;29;20055;-76
2023/03/10 08:37:25;;;;;;;8.60;1.48;;;;;;;;;;4941269;29;20035;-76
2023/03/10 08:39:52;;;;;;;4.45;1.35;;;;;;;;;;4943359;29;20020;-75
2023/03/10 08:42:18;;;;;;;7.20;1.50;;;9.50;99.90;;;;;;4924557;29;20054;-75
2023/03/10 08:44:44;;;;;;;4.65;1.33;;;;;;;;;;4948267;29;20019;-74
2023/03/10 08:47:10;;;;;;;4.30;1.25;;;9.50;99.90;;;;;;4956722;29;20475;-76
2023/03/10 08:49:36;;;;;;;5.80;1.17;;;;;;;;;;4954798;29;20046;-78
2023/03/10 08:52:02;;;;;;;5.97;1.30;;;;;;;;;;4957610;29;20079;-76
2023/03/10 08:54:29;;;;;;;6.20;1.48;;;9.50;99.90;;;;;;4941869;29;20023;-77
2023/03/10 08:56:55;;;;;;;6.10;1.33;;;9.60;99.90;;;;;;4959805;29;20122;-77
2023/03/10 08:59:21;;;;;;;5.82;1.17;;;;;;;;;;4942877;29;20130;-77
2023/03/10 09:01:47;;;;;;;4.10;1.20;;;;;;;;;;4942310;29;20035;-75
2023/03/10 09:04:13;;;;;;;3.90;1.00;;;;;;;;;;4959462;29;20159;-76
2023/03/10 09:06:39;;;;;;;6.13;1.30;;;;;;;;;;4959408;29;20063;-77
2023/03/10 09:09:06;;;;;;;4.95;1.30;;;;;;;;;;4959235;29;20039;-76
2023/03/10 09:11:32;;;;;;;5.25;1.25;;;;;;;;;;4941654;29;20039;-72
2023/03/10 09:13:59;;;;;;;4.72;1.33;;;;;;;;;;4942402;29;20034;-72
2023/03/10 09:16:27;;;;;;;9.18;1.77;;;;;;;;;;4952750;29;20035;-75
2023/03/10 09:18:53;;;;;;;4.70;1.45;;;;;;;;;;4923081;28;20035;-75
2023/03/10 09:21:19;;;;;;;6.43;1.00;;;;;;;;;;4951471;29;20440;-74
2023/03/10 09:23:51;;;;;;;5.55;1.20;;;9.80;99.00;;;;;;4939802;29;20028;-72
2023/03/10 09:26:18;;;;;;;4.32;1.17;;;9.70;97.10;;;;;;4932780;29;20024;-79
2023/03/10 09:28:43;;;;;;;5.30;1.50;;;9.60;98.20;;;;;;4954878;29;20031;-78
2023/03/10 09:31:16;;;;;;;7.55;1.30;;;9.60;99.90;;;;;;4952861;29;20027;-79
2023/03/10 09:33:42;;;;;;;6.38;1.48;;;9.50;97.40;;;;;;4948397;29;20111;-76
2023/03/10 09:36:09;;;;;;;5.75;1.20;;;9.60;97.70;;;;;;4948267;29;20055;-77
2023/03/10 09:38:35;;;;;;;5.47;1.27;;;9.60;98.30;;;;;;4925650;29;20401;-77
2023/03/10 09:41:01;;;;;;;4.45;0.90;;;9.60;98.20;;;;;;4942641;29;20034;-76
2023/03/10 09:43:35;;;;;;;3.47;1.23;;;9.60;98.00;;;;;;4952927;29;20028;-80
2023/03/10 09:46:49;;;;;;;6.57;1.05;;;9.60;95.40;;;;;;4943821;29;20024;-79
2023/03/10 09:49:25;;;;;;;4.57;1.10;;;9.60;97.50;;;;;;4947468;29;20027;-76
2023/03/10 09:51:50;;;;;;;4.55;0.90;;;9.60;96.90;;;;;;4951697;29;20582;-75
2023/03/10 09:54:36;;;;;;;3.88;1.20;;;;;;;;;;4943734;29;20115;-72
2023/03/10 09:57:13;;;;;;;3.72;0.90;;;9.70;91.70;;;;;;4942042;29;20083;-67
2023/03/10 09:59:42;;;;;;;2.25;0.63;;;9.80;93.70;;;;;;4923005;29;20075;-69
2023/03/10 10:02:17;;;;;;;5.32;1.00;;;9.90;91.30;;;;;;4939794;29;20028;-69
2023/03/10 10:04:44;;;;;;;3.22;0.90;;;10.00;92.70;;;;;;4939874;29;20027;-69
2023/03/10 10:07:16;;;;;;;4.80;1.08;;;10.10;91.90;;;;;;4939909;29;20028;-69
2023/03/10 10:09:47;;;;;;;4.28;1.08;;;10.20;91.30;;;;;;4922148;29;20055;-69
2023/03/10 10:12:22;;;;;;;4.72;0.85;;;10.20;88.00;;;;;;4939805;29;20107;-69
2023/03/10 10:14:58;;;;;;;4.47;0.90;;;10.20;87.30;;;;;;4939740;29;20027;-69
2023/03/10 10:17:43;;;;;;;2.58;0.88;;;10.20;90.50;;;;;;4939858;29;20020;-69
2023/03/10 10:20:31;;;;;;;4.55;0.82;;;10.40;90.60;;;;;;4929153;29;20505;-69
2023/03/10 10:22:56;;;;;;;5.10;1.13;;;10.60;88.90;;;;;;4931761;29;20036;-69
2023/03/10 10:25:24;;;;;;;4.70;0.95;;;10.60;87.80;;;;;;4949109;29;20074;-69
2023/03/10 10:27:54;;;;;;;3.90;0.95;;;10.60;88.70;;;;;;4958521;29;20030;-68
2023/03/10 10:30:29;;;;;;;3.67;0.80;;;10.60;91.10;;;;;;4957627;29;20023;-73
2023/03/10 10:33:04;;;;;;;7.50;1.13;;;10.60;90.70;;;;;;4958823;29;20059;-69
2023/03/10 10:35:33;;;;;;;5.30;1.10;;;10.70;90.20;;;;;;4959122;29;20106;-69
2023/03/10 10:38:01;;;;;;;3.58;1.05;;;10.80;87.00;;;;;;4958962;29;20035;-69
2023/03/10 10:40:33;;;;;;;3.13;0.80;;;10.90;90.20;;;;;;4957658;29;20031;-69
2023/03/10 10:43:08;;;;;;;3.47;0.77;;;11.10;90.00;;;;;;4939739;29;20016;-69
2023/03/10 10:45:36;;;;;;;2.90;0.80;;;11.10;82.10;;;;;;4939751;29;20031;-72
2023/03/10 10:48:03;;;;;;;4.53;1.10;;;11.00;86.10;;;;;;4942765;29;20019;-73
2023/03/10 10:50:31;;;;;;;3.67;0.90;;;11.00;86.90;;;;;;4925383;29;20024;-77
2023/03/10 10:53:12;;;;;;;4.43;1.10;;;10.80;83.60;;;;;;4936103;29;20042;-74
2023/03/10 10:55:40;;;;;;;6.18;0.88;;;10.70;86.20;;;;;;4948962;29;20063;-71
2023/03/10 10:58:24;;;;;;;4.25;1.02;;;10.60;84.60;;;;;;4950301;29;20031;-75
2023/03/10 11:00:57;;;;;;;3.92;1.00;;;10.70;89.60;;;;;;4925768;29;20444;-72
2023/03/10 11:03:29;;;;;;;3.25;1.00;;;10.80;81.50;;;;;;4957913;29;20504;-72
2023/03/10 11:05:59;;;;;;;1.55;0.60;;;10.80;83.00;;;;;;4962001;29;20023;-68
2023/03/10 11:08:36;;;;;;;4.35;1.10;;;10.80;91.80;;;;;;4961835;29;20432;-76
2023/03/10 11:11:11;;;;;;;3.42;0.93;;;10.60;83.60;;;;;;4950476;29;20055;-73
2023/03/10 11:14:01;;;;;;;6.07;0.82;;;10.50;86.90;;;;;;4945624;29;20031;-75
2023/03/10 11:16:50;;;;;;;1.75;0.70;;;10.50;84.00;;;;;;4944420;29;20121;-74
2023/03/10 11:19:48;;;;;;;2.85;1.13;;;10.60;86.70;;;;;;4896773;29;20090;-78
2023/03/10 11:22:39;;;;;;;3.17;0.88;;;10.60;83.00;;;;;;4924019;29;20044;-72
2023/03/10 11:25:37;;;;;;;3.63;1.00;;;10.80;87.60;;;;;;4941883;29;20034;-72
2023/03/10 11:28:22;;;;;;;4.15;1.05;;;11.00;83.30;;;;;;4928305;29;20130;-71
2023/03/10 11:31:25;;;;;;;3.95;0.98;;;10.90;80.00;;;;;;4946408;29;20050;-75
2023/03/10 11:34:10;;;;;;;6.68;1.33;;;10.80;82.80;;;;;;4960757;29;20027;-76
2023/03/10 11:36:39;;;;;;;5.60;1.25;;;10.80;79.70;;;;;;4949435;29;20396;-76
2023/03/10 11:39:19;;;;;;;4.10;0.80;;;10.70;74.40;;;;;;4931446;29;20032;-72
2023/03/10 11:41:50;;;;;;;4.30;1.00;;;10.60;80.70;;;;;;4949196;29;20114;-70
2023/03/10 11:44:50;;;;;;;4.22;1.08;;;10.70;82.40;;;;;;4922663;29;20020;-75
2023/03/10 11:47:30;;;;;;;3.20;0.80;;;10.70;76.60;;;;;;4957676;29;20019;-73
2023/03/10 11:50:09;;;;;;;3.30;0.90;;;10.90;84.10;;;;;;4941616;29;20024;-78
2023/03/10 11:52:36;;;;;;;4.97;1.17;;;10.80;78.60;;;;;;4958648;29;20075;-80
2023/03/10 11:55:19;;;;;;;3.72;0.93;;;10.80;85.10;;;;;;4952396;29;20034;-78
2023/03/10 11:57:53;;;;;;;4.15;1.08;;;10.90;78.90;;;;;;4944813;29;20039;-77
2023/03/10 12:00:35;;;;;;;5.50;1.20;;;10.90;79.60;;;;;;4950793;29;20043;-78
2023/03/10 12:03:39;;;;;;;6.10;1.10;;;11.00;74.20;;;;;;4952435;29;20051;-74
2023/03/10 12:06:11;;;;;;;4.93;1.17;;;11.00;73.80;;;;;;4948705;29;20038;-74
2023/03/10 12:08:38;;;;;;;3.58;1.02;;;11.00;68.40;;;;;;4954412;29;20028;-77
2023/03/10 12:11:11;;;;;;;3.35;0.90;;;10.90;67.00;;;;;;4942335;29;20075;-74
2023/03/10 12:13:51;;;;;;;3.13;0.77;;;11.00;70.80;;;;;;4940895;29;20031;-74
2023/03/10 12:16:27;;;;;;;3.70;0.80;;;11.00;70.60;;;;;;4943533;29;20026;-74
2023/03/10 12:18:53;;;;;;;4.10;0.85;;;10.70;67.90;;;;;;4949244;29;20496;-76
2023/03/10 12:21:20;;;;;;;4.38;0.93;;;;;;;;;;4941160;29;20099;-75
2023/03/10 12:23:47;;;;;;;2.03;0.90;;;;;;;;;;4912252;29;20039;-73
2023/03/10 12:26:13;;;;;;;4.55;0.80;;;;;;;;;;4916093;29;20040;-74
2023/03/10 12:28:39;;;;;;;4.53;1.08;;;;;;;;;;4921696;29;20024;-71
2023/03/10 12:31:10;;;;;;;2.60;0.80;;;;;;;;;;4920490;29;20100;-74
2023/03/10 12:33:40;;;;;;;4.55;0.80;;;;;;;;;;4934404;29;20028;-70
2023/03/10 12:36:15;;;;;;;5.45;0.95;;;;;;;;;;4939601;29;20051;-68
2023/03/10 12:39:11;;;;;;;2.75;0.70;;;10.90;72.00;;;;;;4923320;29;20054;-69
2023/03/10 12:42:21;;;;;;;2.72;0.88;;;10.90;70.80;;;;;;4913825;29;20408;-76
2023/03/10 12:45:23;;;;;;;4.05;0.75;;;11.00;73.40;;;;;;4939020;29;20513;-75
2023/03/10 12:48:09;;;;;;;4.38;1.15;;;11.10;73.20;;;;;;4925701;29;20043;-71
2023/03/10 12:50:51;;;;;;;4.38;0.90;;;11.20;78.70;;;;;;4918854;29;20091;-71
2023/03/10 12:53:38;;;;;;;3.10;0.77;;;11.30;81.40;;;;;;4920085;29;20032;-72
2023/03/10 12:56:13;;;;;;;3.05;0.90;;;11.40;80.40;;;;;;4921016;29;20087;-72
2023/03/10 12:59:07;;;;;;;3.13;0.90;;;11.40;81.10;;;;;;4903776;29;20067;-72
2023/03/10 13:01:40;;;;;;;4.25;0.88;;;11.30;76.40;;;;;;4903839;29;20035;-72
2023/03/10 13:04:07;;;;;;;3.22;0.75;;;11.20;73.40;;;;;;4928414;29;20046;-71
2023/03/10 13:06:37;;;;;;;4.63;1.02;;;11.10;70.60;;;;;;4925983;29;20081;-70
2023/03/10 13:09:09;;;;;;;4.32;0.80;;;;;;;;;;4920469;29;20017;-70
2023/03/10 13:11:35;;;;;;;3.23;0.70;;;;;;;;;;4936079;29;20086;-71
2023/03/10 13:14:04;;;;;;;3.63;0.95;;;;;;;;;;4939835;29;20179;-70
2023/03/10 13:16:32;;;;;;;5.32;1.33;;;;;;;;;;4939561;29;20420;-71
2023/03/10 13:19:00;;;;;;;4.28;1.10;;;;;;;;;;4916388;29;20477;-75
2023/03/10 13:21:31;;;;;;;3.72;1.08;;;;;;;;;;4910322;29;20040;-77
2023/03/10 13:24:01;;;;;;;1.52;0.77;;;;;;;;;;4938753;29;20110;-76
2023/03/10 13:26:28;;;;;;;3.75;0.63;;;;;;;;;;4922186;29;20070;-77
2023/03/10 13:28:57;;;;;;;3.10;1.00;;;;;;;;;;4950271;29;20039;-76
2023/03/10 13:31:30;;;;;;;3.17;0.90;;;;;;;;;;4952891;29;20035;-73
2023/03/10 13:33:57;;;;;;;3.78;1.20;;;;;;;;;;4944980;29;20043;-76
2023/03/10 13:36:32;;;;;;;4.32;0.90;;;;;;;;;;4958320;29;20071;-76
2023/03/10 13:38:58;;;;;;;3.88;1.00;;;;;;;;;;4932731;29;20085;-76
2023/03/10 13:41:25;;;;;;;2.60;0.80;;;;;;;;;;4938567;29;20066;-75
2023/03/10 13:43:52;;;;;;;3.30;0.70;;;;;;;;;;4939048;29;20818;-74
2023/03/10 13:46:26;;;;;;;6.18;1.00;;;;;;;;;;4939114;29;20031;-76
2023/03/10 13:48:52;;;;;;;2.92;0.70;;;;;;;;;;4921821;29;20031;-76
2023/03/10 13:51:18;;;;;;;3.25;0.70;;;;;;;;;;4929889;29;20023;-75